Terminal Aerodrome Forecast
Issued by NWS

Home | Current Version | Previous Version | Text Only | Print | Product List | Glossary On
Versions: 1 2 3 4 5 6 7 8 9 10 11 12 13 14 15 16 17 18 19 20 21
584
FTUS46 KSEW 232335
TAFBFI
TAF
KBFI 232335Z 2400/2424 17016G20KT P6SM -SN OVC060
     FM240100 16011KT 5SM -SN OVC035
      TEMPO 2401/2404 2SM -SN SCT006 OVC015
     FM240400 18008KT P6SM VCSH BKN020 OVC035
     FM240700 18011KT P6SM -SHRA BKN010 OVC020
     FM241800 24011G18KT P6SM -SHRASN BKN025
     FM242200 31010KT P6SM -SHRA BKN040=

USA.gov is the U.S. government's official web portal to all federal, state and local government web resources and services.